Time;durP1;ratioP1;P1;durP2;ratioP2;P2;SDS_P1;SDS_P2;PMS_P1;PMS_P2;Temp;Humidity;BMP_temperature;BMP_pressure;BME280_temperature;BME280_humidity;BME280_pressure;Samples;Min_cycle;Max_cycle;Signal;HPM_P1;HPM_P2
2022/06/28 00:00:10;;;;;;;5.28;3.70;;;23.30;84.90;;;;;;6238133;23;20483;-85
2022/06/28 00:02:36;;;;;;;4.38;3.97;;;23.20;85.10;;;;;;6238189;23;20011;-86
2022/06/28 00:05:03;;;;;;;4.93;4.15;;;23.10;85.70;;;;;;6238055;23;20086;-87
2022/06/28 00:07:30;;;;;;;4.60;4.20;;;23.00;85.80;;;;;;6185894;23;20004;-86
2022/06/28 00:09:55;;;;;;;12.90;6.75;;;23.00;86.30;;;;;;6247260;23;20038;-88
2022/06/28 00:12:21;;;;;;;15.88;11.82;;;23.10;86.10;;;;;;6238407;23;20336;-87
2022/06/28 00:17:32;;;;;;;5.68;4.50;;;23.10;85.60;;;;;;6211873;23;20012;-89
2022/06/28 00:19:58;;;;;;;6.45;4.93;;;23.10;86.30;;;;;;6238848;23;20335;-89
2022/06/28 00:22:23;;;;;;;5.07;4.57;;;23.10;86.90;;;;;;6239368;23;20061;-95
2022/06/28 00:24:49;;;;;;;5.63;5.13;;;23.10;87.20;;;;;;6245626;23;20004;-96
2022/06/28 00:27:15;;;;;;;5.90;5.20;;;23.20;86.50;;;;;;6219522;23;20083;-95
2022/06/28 00:29:41;;;;;;;8.48;6.50;;;23.30;85.90;;;;;;6245947;23;20031;-94
2022/06/28 00:32:07;;;;;;;6.47;5.88;;;23.30;85.80;;;;;;6219209;23;20031;-95
2022/06/28 00:34:34;;;;;;;6.57;5.93;;;23.30;85.30;;;;;;6190208;23;20008;-86
2022/06/28 00:36:59;;;;;;;7.95;6.05;;;23.20;86.00;;;;;;6209643;23;20019;-86
2022/06/28 00:39:25;;;;;;;6.82;6.20;;;23.10;86.90;;;;;;6236888;23;20012;-87
2022/06/28 00:41:51;;;;;;;8.05;6.63;;;22.90;87.50;;;;;;6210077;23;20014;-86
2022/06/28 00:44:19;;;;;;;7.25;6.55;;;22.70;87.70;;;;;;6210048;23;20035;-93
2022/06/28 00:46:47;;;;;;;7.47;6.65;;;22.60;88.90;;;;;;6244536;23;20012;-95
2022/06/28 00:49:13;;;;;;;6.57;5.97;;;22.40;89.60;;;;;;6219761;23;20027;-94
2022/06/28 00:51:39;;;;;;;8.15;7.35;;;22.40;90.20;;;;;;6219250;23;20008;-95
2022/06/28 00:54:06;;;;;;;9.00;6.05;;;22.30;89.90;;;;;;6220040;23;20018;-94
2022/06/28 00:56:32;;;;;;;10.13;8.13;;;22.30;90.30;;;;;;6192969;23;20012;-93
2022/06/28 00:58:58;;;;;;;8.65;7.10;;;22.20;90.30;;;;;;6213386;23;20008;-88
2022/06/28 01:01:25;;;;;;;8.73;6.72;;;22.20;90.50;;;;;;6211854;23;20085;-88
2022/06/28 01:03:52;;;;;;;9.27;7.45;;;22.20;90.50;;;;;;6212494;23;20019;-89
2022/06/28 01:06:22;;;;;;;9.05;8.13;;;22.20;90.40;;;;;;6210017;23;20062;-90
2022/06/28 01:08:48;;;;;;;10.13;7.47;;;22.10;90.80;;;;;;6210094;23;20012;-89
2022/06/28 01:11:21;;;;;;;9.32;8.00;;;22.10;90.80;;;;;;6210196;23;20035;-91
2022/06/28 01:13:54;;;;;;;10.40;8.82;;;22.10;90.70;;;;;;6240923;23;20099;-88
2022/06/28 01:16:22;;;;;;;9.80;8.57;;;22.20;90.60;;;;;;6213362;23;20046;-88
2022/06/28 01:18:51;;;;;;;9.60;8.60;;;22.10;90.50;;;;;;6213406;23;20132;-91
2022/06/28 01:21:33;;;;;;;9.27;8.27;;;22.00;90.90;;;;;;6213362;23;20012;-88
2022/06/28 01:23:59;;;;;;;8.95;8.05;;;21.90;91.20;;;;;;6213520;23;20115;-89
2022/06/28 01:26:55;;;;;;;9.82;8.82;;;21.90;91.40;;;;;;6231291;23;20143;-89
2022/06/28 01:29:21;;;;;;;11.70;8.23;;;21.90;91.30;;;;;;6188016;23;20821;-88
2022/06/28 01:31:58;;;;;;;9.55;8.50;;;21.90;91.30;;;;;;6213064;23;20325;-86
2022/06/28 01:34:24;;;;;;;10.23;9.10;;;21.90;90.90;;;;;;6212140;23;20012;-88
2022/06/28 01:36:51;;;;;;;10.35;8.27;;;21.80;90.80;;;;;;6212030;23;20777;-87
2022/06/28 01:39:19;;;;;;;9.30;8.10;;;21.70;91.10;;;;;;6216877;23;20012;-94
2022/06/28 01:41:45;;;;;;;10.00;8.80;;;21.70;91.40;;;;;;6220580;23;20048;-94
2022/06/28 01:44:16;;;;;;;9.18;8.27;;;21.70;91.20;;;;;;6246246;23;20016;-92
2022/06/28 01:47:00;;;;;;;12.45;9.55;;;21.60;91.40;;;;;;6219574;23;20348;-92
2022/06/28 01:49:47;;;;;;;10.07;8.05;;;21.70;91.50;;;;;;6245486;23;20017;-95
2022/06/28 01:52:14;;;;;;;8.48;7.57;;;21.80;91.40;;;;;;6196107;23;20031;-94
2022/06/28 01:54:40;;;;;;;8.80;7.50;;;21.80;91.30;;;;;;6247144;22;20017;-93
2022/06/28 01:57:06;;;;;;;10.45;7.70;;;21.80;91.10;;;;;;6219653;23;20809;-96
2022/06/28 01:59:44;;;;;;;7.97;7.15;;;21.80;91.10;;;;;;6215796;23;20008;-94
2022/06/28 02:02:22;;;;;;;7.80;7.00;;;21.80;90.30;;;;;;6220349;23;20004;-92
2022/06/28 02:05:08;;;;;;;9.43;7.72;;;21.80;90.50;;;;;;6246018;23;20086;-89
2022/06/28 02:07:34;;;;;;;7.53;6.82;;;21.70;90.60;;;;;;6214149;23;20099;-89
2022/06/28 02:10:01;;;;;;;7.70;6.90;;;21.70;90.50;;;;;;6250682;23;20448;-88
2022/06/28 02:12:28;;;;;;;8.60;7.30;;;21.70;90.40;;;;;;6214269;23;20008;-90
2022/06/28 02:14:57;;;;;;;8.25;7.25;;;21.70;90.40;;;;;;6218684;23;20008;-94
2022/06/28 02:17:24;;;;;;;7.78;7.07;;;21.60;90.40;;;;;;6221275;23;20008;-96
2022/06/28 02:19:50;;;;;;;9.25;7.55;;;21.50;90.30;;;;;;6220199;23;20012;-94
2022/06/28 02:22:17;;;;;;;8.57;7.13;;;21.50;90.40;;;;;;6220388;23;20008;-95
2022/06/28 02:24:43;;;;;;;9.32;7.20;;;21.50;90.50;;;;;;6219293;23;20008;-95
2022/06/28 02:27:09;;;;;;;7.57;6.78;;;21.50;90.60;;;;;;6211329;23;20015;-87
2022/06/28 02:29:34;;;;;;;7.55;6.80;;;21.50;90.70;;;;;;6238432;23;20008;-88
2022/06/28 02:32:00;;;;;;;7.35;6.25;;;21.50;90.90;;;;;;6238573;23;20013;-88
2022/06/28 02:42:39;;;;;;;6.95;6.20;;;21.40;90.80;;;;;;6246398;23;20004;-94
2022/06/28 02:45:05;;;;;;;7.13;6.43;;;21.40;90.50;;;;;;6214887;23;20027;-89
2022/06/28 02:47:31;;;;;;;9.80;7.78;;;21.40;90.90;;;;;;6213039;23;20046;-89
2022/06/28 02:49:59;;;;;;;6.43;5.82;;;21.40;91.00;;;;;;6240072;23;20054;-89
2022/06/28 02:52:25;;;;;;;7.40;6.70;;;21.50;90.80;;;;;;6211770;23;20095;-87
2022/06/28 02:54:51;;;;;;;7.85;6.88;;;21.50;90.60;;;;;;6241481;22;20062;-89
2022/06/28 02:57:17;;;;;;;8.20;7.18;;;21.50;90.60;;;;;;6240352;23;20016;-89
2022/06/28 02:59:43;;;;;;;9.57;7.47;;;21.50;90.70;;;;;;6214659;23;20665;-89
2022/06/28 03:02:09;;;;;;;6.93;6.18;;;21.40;90.60;;;;;;6214890;23;20016;-88
2022/06/28 03:04:35;;;;;;;6.70;6.03;;;21.40;90.80;;;;;;6223756;23;20031;-87
2022/06/28 03:07:01;;;;;;;6.55;5.95;;;21.50;90.70;;;;;;6212641;23;20539;-87
2022/06/28 03:09:27;;;;;;;7.45;6.35;;;21.50;90.60;;;;;;6213623;23;20154;-86
2022/06/28 03:11:53;;;;;;;6.60;6.00;;;21.50;90.70;;;;;;6220245;23;20082;-93
2022/06/28 03:14:19;;;;;;;7.38;6.20;;;21.40;90.80;;;;;;6223728;23;20012;-93
2022/06/28 03:16:45;;;;;;;6.32;5.72;;;21.40;91.00;;;;;;6224946;23;20004;-90
2022/06/28 03:19:11;;;;;;;6.20;5.20;;;21.40;91.20;;;;;;6193631;23;20460;-89
2022/06/28 03:21:37;;;;;;;8.65;5.68;;;21.40;91.20;;;;;;6245062;23;20026;-89
2022/06/28 03:24:03;;;;;;;6.30;5.70;;;21.50;90.80;;;;;;6244834;23;20004;-90
2022/06/28 03:26:29;;;;;;;6.20;5.60;;;21.50;90.70;;;;;;6217181;23;20008;-91
2022/06/28 03:28:55;;;;;;;7.72;4.95;;;21.70;90.70;;;;;;6186997;23;20008;-90
2022/06/28 03:31:21;;;;;;;5.55;4.95;;;21.70;90.40;;;;;;6239181;23;20110;-90
2022/06/28 03:33:47;;;;;;;5.20;4.70;;;21.80;90.20;;;;;;6212991;23;20008;-90
2022/06/28 03:36:13;;;;;;;5.35;4.85;;;21.80;90.10;;;;;;6215718;23;20507;-89
2022/06/28 03:38:42;;;;;;;5.88;5.30;;;21.80;89.90;;;;;;6214547;23;20065;-91
2022/06/28 03:41:22;;;;;;;5.60;4.95;;;21.80;89.70;;;;;;6218748;23;20023;-93
2022/06/28 03:43:52;;;;;;;4.93;4.43;;;21.80;89.80;;;;;;6214763;23;20428;-86
2022/06/28 03:46:19;;;;;;;5.90;4.55;;;21.90;89.60;;;;;;6247171;23;20351;-88
2022/06/28 03:48:49;;;;;;;5.05;4.55;;;21.90;89.10;;;;;;6210339;23;20389;-87
2022/06/28 03:51:29;;;;;;;5.20;4.70;;;21.90;89.40;;;;;;6210633;23;20042;-88
2022/06/28 03:54:19;;;;;;;4.88;4.45;;;21.90;88.90;;;;;;6216013;23;20468;-93
2022/06/28 03:56:52;;;;;;;5.25;4.60;;;21.80;89.60;;;;;;6219176;23;20391;-92
2022/06/28 03:59:19;;;;;;;5.85;4.40;;;21.80;89.00;;;;;;6219073;23;20000;-94
2022/06/28 04:01:45;;;;;;;4.68;4.28;;;21.80;88.40;;;;;;6193822;23;20425;-93
2022/06/28 04:04:12;;;;;;;4.50;4.10;;;21.80;88.30;;;;;;6219048;23;20500;-93
2022/06/28 04:06:42;;;;;;;5.55;4.70;;;21.80;88.10;;;;;;6219199;23;20007;-93
2022/06/28 04:09:08;;;;;;;4.35;3.95;;;21.80;88.60;;;;;;6218559;23;20075;-93
2022/06/28 04:11:34;;;;;;;4.43;3.83;;;21.80;87.70;;;;;;6220342;23;20385;-94
2022/06/28 04:14:01;;;;;;;4.35;3.95;;;21.80;87.40;;;;;;6219674;23;20337;-93
2022/06/28 04:16:28;;;;;;;3.47;3.17;;;21.80;87.80;;;;;;6218326;23;20015;-93
2022/06/28 04:18:58;;;;;;;3.95;3.65;;;21.80;87.00;;;;;;6218559;23;20031;-94
2022/06/28 04:21:28;;;;;;;4.13;3.78;;;21.80;87.90;;;;;;6219080;23;20008;-94
2022/06/28 04:24:06;;;;;;;3.95;3.65;;;21.70;88.20;;;;;;6218982;23;20013;-92
2022/06/28 04:26:32;;;;;;;3.58;3.28;;;21.70;87.20;;;;;;6218647;23;20012;-95
2022/06/28 04:28:59;;;;;;;3.78;3.15;;;21.60;87.60;;;;;;6218133;23;20004;-93
2022/06/28 04:31:26;;;;;;;4.45;3.33;;;21.50;88.70;;;;;;6218875;23;20068;-94
2022/06/28 04:33:52;;;;;;;3.38;3.08;;;21.50;88.80;;;;;;6218353;23;20000;-93
2022/06/28 04:36:26;;;;;;;3.13;2.58;;;21.40;89.60;;;;;;6218365;23;20015;-94
2022/06/28 04:38:53;;;;;;;3.00;2.70;;;21.40;88.60;;;;;;6192793;23;20447;-95
2022/06/28 04:41:24;;;;;;;3.45;2.88;;;21.60;88.80;;;;;;6218553;23;20329;-93
2022/06/28 04:44:01;;;;;;;3.00;2.70;;;21.80;87.60;;;;;;6194824;23;20008;-93
2022/06/28 04:46:31;;;;;;;3.45;2.50;;;21.80;86.80;;;;;;6194308;23;20004;-96
2022/06/28 04:49:00;;;;;;;4.78;2.70;;;21.80;87.30;;;;;;6219909;23;20004;-94
2022/06/28 04:51:53;;;;;;;2.50;2.30;;;21.60;86.80;;;;;;6234258;23;20008;-87
2022/06/28 04:54:28;;;;;;;2.60;2.30;;;21.50;87.70;;;;;;6211743;23;20012;-88
2022/06/28 04:57:14;;;;;;;;;;;21.50;86.50;;;;;;6151720;23;20042;-87
2022/06/28 04:59:44;;;;;;;2.17;1.98;;;21.40;85.90;;;;;;6211933;23;20332;-87
2022/06/28 05:02:22;;;;;;;1.60;1.50;;;21.40;86.10;;;;;;6216639;23;20057;-94
2022/06/28 05:04:49;;;;;;;1.80;1.70;;;21.30;87.00;;;;;;6221438;23;20008;-93
2022/06/28 05:07:35;;;;;;;2.40;2.05;;;21.20;88.30;;;;;;6220946;23;20077;-95
2022/06/28 05:10:04;;;;;;;2.00;1.88;;;21.30;87.20;;;;;;6220765;23;20028;-92
2022/06/28 05:12:32;;;;;;;2.22;1.60;;;21.30;85.80;;;;;;6220774;23;20428;-93
2022/06/28 05:14:58;;;;;;;2.15;1.52;;;21.30;86.20;;;;;;6221887;23;20091;-94
2022/06/28 05:17:32;;;;;;;1.73;1.60;;;21.40;85.10;;;;;;6221275;23;20012;-95
2022/06/28 05:19:58;;;;;;;1.63;1.52;;;21.40;84.70;;;;;;6215451;23;20287;-88
2022/06/28 05:22:25;;;;;;;1.55;1.45;;;21.40;85.30;;;;;;6212923;23;20097;-88
2022/06/28 05:25:14;;;;;;;1.92;1.70;;;21.50;84.40;;;;;;6207960;23;20400;-88
2022/06/28 05:27:40;;;;;;;2.80;1.90;;;21.50;84.70;;;;;;6219602;23;20012;-94
2022/06/28 05:30:07;;;;;;;2.15;1.92;;;21.50;83.40;;;;;;6220213;23;20008;-93
2022/06/28 05:32:33;;;;;;;1.60;1.50;;;21.40;84.70;;;;;;6220691;23;20004;-95
2022/06/28 05:34:59;;;;;;;1.65;1.55;;;21.40;84.80;;;;;;6220794;23;20008;-93
2022/06/28 05:37:25;;;;;;;3.28;1.60;;;21.40;85.00;;;;;;6219879;23;20016;-94
2022/06/28 05:39:52;;;;;;;2.53;1.40;;;21.60;84.30;;;;;;6221000;23;20007;-93
2022/06/28 05:42:18;;;;;;;1.85;1.73;;;21.80;82.90;;;;;;6220776;23;20126;-95
2022/06/28 05:44:44;;;;;;;2.00;1.80;;;22.00;83.20;;;;;;6221705;23;20605;-95
2022/06/28 05:47:11;;;;;;;1.55;1.45;;;22.10;81.40;;;;;;6217271;23;20012;-95
2022/06/28 05:49:38;;;;;;;3.08;1.40;;;22.20;80.30;;;;;;6214995;23;20345;-94
2022/06/28 05:52:05;;;;;;;1.58;1.48;;;22.20;80.20;;;;;;6214411;23;20008;-92
2022/06/28 05:54:31;;;;;;;1.55;1.27;;;22.20;79.50;;;;;;6214515;23;20301;-93
2022/06/28 05:56:57;;;;;;;1.27;1.17;;;22.10;79.70;;;;;;6219169;23;20008;-93
2022/06/28 05:59:24;;;;;;;2.45;1.48;;;22.10;80.70;;;;;;6194867;23;20494;-94
2022/06/28 06:01:50;;;;;;;2.90;1.50;;;22.00;80.60;;;;;;6219933;23;20012;-93
2022/06/28 06:04:19;;;;;;;1.50;1.40;;;22.10;79.70;;;;;;6219248;23;20099;-91
2022/06/28 06:06:48;;;;;;;1.60;1.50;;;22.10;80.40;;;;;;6193523;23;20016;-94
2022/06/28 06:09:14;;;;;;;4.75;4.15;;;22.10;79.60;;;;;;6218837;23;20004;-92
2022/06/28 06:11:40;;;;;;;2.25;1.90;;;22.20;79.90;;;;;;6190701;23;20018;-91
2022/06/28 06:14:06;;;;;;;3.25;2.00;;;22.20;80.10;;;;;;6216080;23;20039;-91
2022/06/28 06:16:38;;;;;;;1.40;1.30;;;22.20;79.70;;;;;;6244138;23;20011;-93
2022/06/28 06:19:04;;;;;;;2.00;1.45;;;22.20;79.50;;;;;;6219266;23;20019;-90
2022/06/28 06:21:30;;;;;;;1.88;1.40;;;22.20;79.10;;;;;;6194360;23;20012;-93
2022/06/28 06:23:56;;;;;;;1.30;1.20;;;22.10;79.70;;;;;;6219230;23;20023;-94
2022/06/28 06:26:48;;;;;;;4.22;3.42;;;22.20;79.70;;;;;;6219155;23;20031;-94
2022/06/28 06:29:14;;;;;;;2.42;1.67;;;22.30;79.40;;;;;;6218519;23;20009;-93
2022/06/28 06:31:40;;;;;;;2.28;1.90;;;22.20;79.50;;;;;;6218959;23;20008;-93
2022/06/28 06:34:24;;;;;;;1.85;1.67;;;22.30;79.50;;;;;;6245444;23;20058;-93
2022/06/28 06:36:57;;;;;;;3.55;1.70;;;22.30;77.60;;;;;;6195066;23;20000;-92
2022/06/28 06:39:23;;;;;;;1.67;1.58;;;22.40;78.90;;;;;;6218542;23;20061;-93
2022/06/28 06:41:49;;;;;;;2.15;1.75;;;22.50;78.70;;;;;;6218851;23;20007;-93
2022/06/28 06:44:15;;;;;;;1.35;1.25;;;22.40;78.90;;;;;;6218700;23;20083;-91
2022/06/28 06:46:41;;;;;;;2.22;1.30;;;22.40;77.70;;;;;;6193848;23;20030;-93
2022/06/28 06:49:08;;;;;;;1.23;1.13;;;22.40;77.20;;;;;;6193393;23;20495;-93
2022/06/28 06:51:34;;;;;;;2.28;1.20;;;22.40;77.60;;;;;;6218418;23;20014;-92
2022/06/28 06:54:01;;;;;;;2.20;2.00;;;22.40;77.90;;;;;;6218048;23;20039;-92
2022/06/28 06:56:30;;;;;;;2.67;2.47;;;22.40;77.80;;;;;;6218849;23;20008;-94
2022/06/28 06:58:57;;;;;;;1.63;1.52;;;22.40;77.30;;;;;;6218389;23;20019;-91
2022/06/28 07:01:29;;;;;;;2.78;1.60;;;22.40;76.60;;;;;;6218318;23;20036;-89
2022/06/28 07:03:56;;;;;;;3.10;1.70;;;22.40;76.50;;;;;;6211777;23;20023;-85
2022/06/28 07:06:21;;;;;;;2.05;1.20;;;22.30;76.40;;;;;;6237654;23;20012;-84
2022/06/28 07:08:47;;;;;;;1.50;1.40;;;22.40;76.40;;;;;;6185329;23;20004;-85
2022/06/28 07:11:14;;;;;;;1.67;1.10;;;22.20;76.30;;;;;;6209336;23;20008;-86
2022/06/28 07:13:40;;;;;;;1.58;1.30;;;22.30;76.80;;;;;;6247348;23;20099;-86
2022/06/28 07:16:06;;;;;;;1.20;1.15;;;22.30;76.80;;;;;;6209910;23;20011;-85
2022/06/28 07:18:33;;;;;;;2.83;1.30;;;22.40;76.80;;;;;;6210155;23;20480;-85
2022/06/28 07:20:59;;;;;;;1.30;1.20;;;22.50;75.90;;;;;;6209923;23;20391;-85
2022/06/28 07:23:25;;;;;;;2.75;1.42;;;22.50;75.50;;;;;;6210527;23;20122;-86
2022/06/28 07:25:51;;;;;;;6.60;4.45;;;22.60;74.90;;;;;;6209980;23;20531;-86
2022/06/28 07:28:17;;;;;;;4.18;1.90;;;22.70;74.50;;;;;;6210067;23;20012;-85
2022/06/28 07:30:44;;;;;;;3.05;1.90;;;22.70;73.80;;;;;;6210275;23;20031;-85
2022/06/28 07:33:12;;;;;;;1.30;1.20;;;22.80;74.00;;;;;;6210038;23;20024;-85
2022/06/28 07:35:38;;;;;;;1.67;1.30;;;22.80;75.80;;;;;;6210257;23;20012;-84
2022/06/28 07:38:04;;;;;;;1.42;1.33;;;22.80;75.00;;;;;;6210759;23;20038;-85
2022/06/28 07:41:05;;;;;;;6.30;1.38;;;22.80;74.40;;;;;;6123897;23;20046;-85
2022/06/28 07:43:53;;;;;;;1.50;1.10;;;22.80;73.40;;;;;;6228078;23;20142;-85
2022/06/28 07:46:23;;;;;;;1.88;1.27;;;22.90;73.10;;;;;;6212825;23;20012;-85
2022/06/28 07:48:50;;;;;;;1.50;1.40;;;22.90;73.70;;;;;;6187675;23;20507;-86
2022/06/28 07:54:02;;;;;;;1.30;1.20;;;23.00;74.40;;;;;;6216215;23;20205;-85
2022/06/28 07:56:30;;;;;;;1.70;1.30;;;23.10;73.70;;;;;;6217282;23;20058;-85
2022/06/28 07:58:56;;;;;;;1.63;1.45;;;23.10;74.60;;;;;;6217723;23;20016;-86
2022/06/28 08:01:27;;;;;;;2.28;1.17;;;23.20;74.10;;;;;;6211342;23;20008;-86
2022/06/28 08:03:53;;;;;;;2.60;1.30;;;23.30;73.00;;;;;;6209907;23;20030;-86
2022/06/28 08:06:20;;;;;;;1.35;1.25;;;23.30;73.70;;;;;;6210350;23;20015;-85
2022/06/28 08:08:51;;;;;;;2.10;1.27;;;23.40;71.80;;;;;;6214322;23;20054;-85
2022/06/28 08:11:17;;;;;;;2.55;1.30;;;23.60;71.90;;;;;;6214041;23;20016;-86
2022/06/28 08:13:47;;;;;;;1.10;1.00;;;23.70;71.60;;;;;;6214677;23;20001;-86
2022/06/28 08:16:14;;;;;;;1.98;1.33;;;23.80;70.50;;;;;;6211999;23;20012;-86
2022/06/28 08:18:42;;;;;;;1.42;1.20;;;23.80;71.40;;;;;;6237159;23;20091;-84
2022/06/28 08:21:09;;;;;;;2.15;1.35;;;23.90;71.40;;;;;;6209924;23;20022;-85
2022/06/28 08:23:35;;;;;;;1.40;1.30;;;24.00;71.00;;;;;;6210329;23;20061;-85
2022/06/28 08:26:01;;;;;;;4.15;1.05;;;24.10;68.60;;;;;;6209749;23;20016;-84
2022/06/28 08:28:27;;;;;;;3.35;2.78;;;24.20;68.20;;;;;;6209776;23;20498;-86
2022/06/28 08:30:52;;;;;;;2.03;1.10;;;24.20;67.50;;;;;;6209682;23;20004;-85
2022/06/28 08:33:18;;;;;;;5.18;1.38;;;24.30;68.00;;;;;;6236565;23;20008;-86
2022/06/28 08:35:45;;;;;;;3.40;1.10;;;24.20;69.00;;;;;;6184413;23;20020;-85
2022/06/28 08:38:12;;;;;;;1.90;1.10;;;24.20;69.00;;;;;;6209683;23;20047;-85
2022/06/28 08:40:39;;;;;;;1.77;1.15;;;24.10;69.00;;;;;;6209233;23;20008;-84
2022/06/28 08:43:06;;;;;;;1.48;1.20;;;24.10;68.10;;;;;;6219983;23;20201;-85
2022/06/28 08:45:33;;;;;;;1.33;1.20;;;24.10;68.70;;;;;;6236802;23;20030;-85
2022/06/28 08:48:04;;;;;;;1.10;1.00;;;24.20;68.00;;;;;;6236346;23;20331;-85
2022/06/28 08:50:38;;;;;;;5.72;2.72;;;24.20;67.00;;;;;;6235802;23;20475;-85
2022/06/28 08:53:09;;;;;;;3.33;1.67;;;24.30;66.10;;;;;;6208859;22;20008;-87
2022/06/28 08:55:36;;;;;;;1.30;1.20;;;24.50;65.40;;;;;;6236830;23;20030;-85
2022/06/28 08:58:05;;;;;;;3.83;1.20;;;24.60;64.50;;;;;;6235556;23;20039;-85
2022/06/28 09:00:32;;;;;;;22.17;15.05;;;24.70;64.20;;;;;;6235830;23;20115;-85
2022/06/28 09:02:58;;;;;;;2.92;1.70;;;24.80;64.60;;;;;;6209210;23;20436;-85
2022/06/28 09:05:26;;;;;;;1.67;1.48;;;25.10;61.00;;;;;;6236342;23;20015;-85
2022/06/28 09:07:54;;;;;;;1.85;0.90;;;25.20;61.90;;;;;;6246076;23;20016;-86
2022/06/28 09:10:20;;;;;;;1.33;0.93;;;25.30;62.00;;;;;;6236206;23;20344;-85
2022/06/28 09:12:55;;;;;;;1.08;0.98;;;25.20;61.30;;;;;;6235717;23;20504;-86
2022/06/28 09:15:24;;;;;;;1.27;1.00;;;25.00;62.10;;;;;;6235758;23;20022;-85
2022/06/28 09:17:54;;;;;;;1.33;1.05;;;24.90;63.30;;;;;;6209347;23;20108;-86
2022/06/28 09:20:34;;;;;;;3.75;1.13;;;24.90;64.10;;;;;;6236244;23;20012;-86
2022/06/28 09:23:00;;;;;;;1.00;0.90;;;25.00;62.20;;;;;;6236404;23;20012;-84
2022/06/28 09:25:29;;;;;;;0.98;0.93;;;25.10;61.90;;;;;;6235969;23;20012;-85
2022/06/28 09:27:59;;;;;;;2.88;0.70;;;25.10;62.40;;;;;;6235719;23;20012;-84
2022/06/28 09:30:26;;;;;;;0.85;0.68;;;25.20;60.40;;;;;;6208490;23;20008;-85
2022/06/28 09:32:52;;;;;;;1.67;0.90;;;25.10;61.20;;;;;;6236108;23;20004;-85
2022/06/28 09:35:18;;;;;;;3.47;0.90;;;25.10;61.90;;;;;;6237485;23;20143;-85
2022/06/28 09:37:49;;;;;;;1.27;0.82;;;25.10;62.00;;;;;;6237508;23;20012;-85
2022/06/28 09:40:22;;;;;;;0.80;0.80;;;25.10;60.60;;;;;;6210126;23;20015;-85
2022/06/28 09:43:08;;;;;;;1.80;0.80;;;25.10;60.20;;;;;;6238164;23;20008;-85
2022/06/28 09:45:40;;;;;;;1.02;0.98;;;25.10;61.30;;;;;;6237520;23;20039;-84
2022/06/28 09:48:07;;;;;;;0.93;0.85;;;25.10;61.60;;;;;;6237619;23;20012;-85
2022/06/28 09:50:36;;;;;;;2.15;1.20;;;25.10;59.90;;;;;;6237769;23;20000;-85
2022/06/28 09:53:03;;;;;;;1.25;1.15;;;25.10;59.70;;;;;;6237476;22;20004;-85
2022/06/28 09:55:31;;;;;;;1.48;1.10;;;25.10;61.10;;;;;;6237981;23;20015;-86
2022/06/28 09:57:59;;;;;;;1.60;1.50;;;25.30;60.20;;;;;;6237477;23;20017;-85
2022/06/28 10:00:25;;;;;;;1.70;1.10;;;25.40;59.30;;;;;;6236413;23;20124;-85
2022/06/28 10:02:54;;;;;;;1.20;1.10;;;25.40;58.60;;;;;;6209849;23;20103;-85
2022/06/28 10:05:21;;;;;;;5.70;3.05;;;25.30;58.00;;;;;;6210286;23;20004;-86
2022/06/28 10:07:47;;;;;;;2.80;1.67;;;25.40;59.00;;;;;;6210805;23;20008;-84
2022/06/28 10:10:14;;;;;;;1.30;1.02;;;25.40;58.80;;;;;;6236892;23;20019;-85
2022/06/28 10:15:31;;;;;;;10.75;4.82;;;25.40;55.90;;;;;;6237060;23;20251;-84
2022/06/28 10:17:59;;;;;;;1.80;1.30;;;25.40;58.40;;;;;;6237476;23;20016;-85
2022/06/28 10:20:34;;;;;;;1.13;0.70;;;25.50;58.30;;;;;;6237211;23;20012;-85
2022/06/28 10:23:19;;;;;;;2.05;1.00;;;25.60;57.50;;;;;;6237696;23;20061;-85
2022/06/28 10:26:00;;;;;;;2.35;0.77;;;25.60;54.80;;;;;;6237311;23;20668;-85
2022/06/28 10:28:28;;;;;;;1.65;0.90;;;25.80;54.00;;;;;;6217597;23;20016;-85
2022/06/28 10:31:24;;;;;;;1.10;1.08;;;25.80;55.00;;;;;;6216592;23;20028;-85
2022/06/28 10:33:53;;;;;;;0.88;0.80;;;25.90;53.40;;;;;;6217009;23;20015;-86
2022/06/28 10:36:24;;;;;;;2.00;1.50;;;26.00;53.70;;;;;;6240102;23;20518;-86
2022/06/28 10:39:08;;;;;;;2.10;1.00;;;26.00;53.00;;;;;;6237787;23;20018;-85
2022/06/28 10:41:38;;;;;;;0.88;0.82;;;26.10;53.30;;;;;;6237672;23;20012;-85
2022/06/28 10:44:20;;;;;;;0.90;0.90;;;26.20;54.50;;;;;;6236404;23;20027;-85
2022/06/28 10:46:52;;;;;;;0.80;0.70;;;26.20;54.20;;;;;;6237163;23;20028;-85
2022/06/28 10:49:18;;;;;;;0.80;0.80;;;26.00;53.50;;;;;;6235224;23;20008;-85
2022/06/28 10:52:16;;;;;;;0.70;0.70;;;26.00;53.60;;;;;;6237608;23;20008;-85
2022/06/28 10:54:51;;;;;;;0.98;0.80;;;25.80;53.00;;;;;;6210479;23;20024;-86
2022/06/28 10:57:24;;;;;;;2.23;0.80;;;25.80;52.70;;;;;;6237072;23;20226;-86
2022/06/28 10:59:52;;;;;;;1.38;1.13;;;25.70;51.40;;;;;;6236807;23;20341;-86
2022/06/28 11:02:18;;;;;;;0.93;0.90;;;25.80;51.20;;;;;;6216736;23;20012;-92
2022/06/28 11:04:45;;;;;;;1.70;1.20;;;25.80;51.60;;;;;;6218189;23;20048;-92
2022/06/28 11:07:20;;;;;;;2.03;0.90;;;25.80;52.30;;;;;;6245252;23;20392;-94
2022/06/28 11:10:03;;;;;;;0.85;0.85;;;25.90;51.60;;;;;;6218962;23;20061;-92
2022/06/28 11:12:31;;;;;;;1.63;0.82;;;25.90;51.90;;;;;;6245117;23;20011;-94
2022/06/28 11:15:01;;;;;;;1.63;1.17;;;25.80;52.50;;;;;;6245554;23;20097;-93
2022/06/28 11:17:35;;;;;;;1.42;0.90;;;25.70;51.60;;;;;;6255198;23;20478;-93
2022/06/28 11:20:06;;;;;;;1.05;0.73;;;25.70;50.70;;;;;;6245547;23;20023;-94
2022/06/28 11:22:43;;;;;;;1.42;0.90;;;25.70;52.60;;;;;;6218974;23;20087;-94
2022/06/28 11:25:15;;;;;;;0.70;0.70;;;25.80;50.80;;;;;;6218338;23;20012;-94
2022/06/28 11:27:45;;;;;;;0.75;0.70;;;25.90;50.50;;;;;;6218688;23;20065;-93
2022/06/28 11:30:12;;;;;;;0.82;0.80;;;25.80;49.90;;;;;;6245599;23;20011;-94
2022/06/28 11:32:40;;;;;;;0.77;0.65;;;25.80;50.10;;;;;;6244620;23;20103;-92
2022/06/28 11:35:12;;;;;;;1.25;0.65;;;25.80;50.80;;;;;;6202764;23;20047;-90
2022/06/28 11:37:53;;;;;;;0.70;0.70;;;25.80;50.40;;;;;;6245847;23;20083;-93
2022/06/28 11:40:24;;;;;;;1.15;1.05;;;25.90;48.50;;;;;;6244986;23;20348;-93
2022/06/28 11:43:08;;;;;;;0.80;0.80;;;25.90;47.70;;;;;;6218679;23;20012;-93
2022/06/28 11:45:42;;;;;;;0.98;0.82;;;26.00;48.70;;;;;;6245241;23;20076;-94
2022/06/28 11:48:14;;;;;;;0.83;0.73;;;26.20;46.20;;;;;;6219293;23;20051;-94
2022/06/28 11:50:45;;;;;;;1.33;1.05;;;26.10;46.40;;;;;;6245013;23;20286;-94
2022/06/28 11:53:12;;;;;;;0.70;0.70;;;26.30;46.80;;;;;;6245702;22;20010;-93
2022/06/28 11:55:45;;;;;;;0.75;0.75;;;26.30;47.40;;;;;;6246597;23;20444;-94
2022/06/28 11:58:28;;;;;;;0.60;0.60;;;26.40;46.80;;;;;;6246556;23;20766;-94
2022/06/28 12:01:32;;;;;;;1.90;0.90;;;26.30;46.60;;;;;;6246271;23;20082;-93
2022/06/28 12:04:00;;;;;;;0.75;0.75;;;26.40;47.60;;;;;;6239340;23;20444;-94
2022/06/28 12:06:31;;;;;;;0.70;0.70;;;26.30;47.70;;;;;;6240095;23;20019;-86
2022/06/28 12:09:04;;;;;;;0.68;0.68;;;26.40;46.70;;;;;;6210029;23;20043;-86
2022/06/28 12:11:43;;;;;;;3.90;0.65;;;26.40;46.20;;;;;;6237073;23;20074;-86
2022/06/28 12:14:15;;;;;;;2.95;0.68;;;26.40;45.30;;;;;;6237120;23;20038;-85
2022/06/28 12:16:45;;;;;;;0.60;0.60;;;26.50;45.20;;;;;;6237725;23;20046;-86
2022/06/28 12:19:20;;;;;;;0.82;0.60;;;26.60;45.10;;;;;;6236876;23;20012;-86
2022/06/28 12:21:59;;;;;;;3.45;2.30;;;26.60;44.60;;;;;;6237332;23;20066;-87
2022/06/28 12:24:52;;;;;;;0.75;0.75;;;26.50;45.70;;;;;;6238240;23;20458;-86
2022/06/28 12:27:27;;;;;;;2.78;0.60;;;26.50;45.00;;;;;;6238927;23;20317;-87
2022/06/28 12:29:55;;;;;;;0.60;0.60;;;26.70;44.80;;;;;;6212836;23;20012;-87
2022/06/28 12:32:21;;;;;;;0.63;0.60;;;26.70;44.30;;;;;;6239990;23;20088;-87
2022/06/28 12:34:47;;;;;;;2.88;0.70;;;26.70;44.50;;;;;;6243960;23;20008;-86
2022/06/28 12:37:14;;;;;;;1.33;0.90;;;26.60;43.60;;;;;;6249215;23;20008;-86
2022/06/28 12:39:40;;;;;;;0.60;0.60;;;26.60;43.40;;;;;;6218037;23;20343;-86
2022/06/28 12:42:06;;;;;;;0.95;0.82;;;26.60;43.20;;;;;;6247063;23;20008;-86
2022/06/28 12:44:33;;;;;;;0.63;0.63;;;26.50;42.20;;;;;;6236750;23;20510;-85
2022/06/28 12:46:58;;;;;;;2.90;2.22;;;26.60;43.90;;;;;;6249636;23;20079;-87
2022/06/28 12:49:25;;;;;;;1.98;0.80;;;26.70;44.40;;;;;;6242529;23;20463;-87
2022/06/28 12:51:51;;;;;;;0.60;0.60;;;26.80;43.40;;;;;;6242597;23;20015;-85
2022/06/28 12:54:17;;;;;;;0.70;0.70;;;26.90;43.60;;;;;;6242377;22;20008;-87
2022/06/28 12:56:44;;;;;;;0.63;0.63;;;26.90;42.30;;;;;;6209963;23;20096;-86
2022/06/28 12:59:10;;;;;;;1.92;0.90;;;27.00;43.60;;;;;;6237509;23;20046;-86
2022/06/28 13:01:36;;;;;;;0.70;0.70;;;27.00;42.10;;;;;;6236233;23;20016;-85
2022/06/28 13:04:03;;;;;;;1.48;0.80;;;27.00;43.10;;;;;;6236389;23;20110;-85
2022/06/28 13:06:29;;;;;;;1.38;0.70;;;26.90;42.60;;;;;;6243721;23;20026;-94
2022/06/28 13:08:55;;;;;;;0.98;0.60;;;26.90;43.00;;;;;;6219532;23;20008;-93
2022/06/28 13:11:22;;;;;;;0.50;0.50;;;27.00;43.40;;;;;;6195363;23;20005;-93
2022/06/28 13:13:49;;;;;;;1.75;0.80;;;27.00;42.30;;;;;;6221012;23;20444;-91